Time;durP1;ratioP1;P1;durP2;ratioP2;P2;SDS_P1;SDS_P2;PMS_P1;PMS_P2;Temp;Humidity;BMP_temperature;BMP_pressure;BME280_temperature;BME280_humidity;BME280_pressure;Samples;Min_cycle;Max_cycle;Signal;HPM_P1;HPM_P2
2022/03/14 00:00:01;;;;;;;22.48;14.88;;;5.20;55.90;;;;;;4983560;28;20238;-80
2022/03/14 00:02:40;;;;;;;25.20;15.52;;;5.10;55.80;;;;;;4984481;28;20328;-79
2022/03/14 00:05:10;;;;;;;95.68;39.95;;;5.10;55.80;;;;;;4998518;28;20230;-80
2022/03/14 00:07:38;;;;;;;47.25;25.38;;;5.00;55.90;;;;;;4985558;28;20253;-77
2022/03/14 00:10:07;;;;;;;39.67;21.00;;;5.00;55.90;;;;;;4985319;28;20785;-80
2022/03/14 00:12:36;;;;;;;31.20;18.58;;;4.90;55.90;;;;;;4999481;28;20210;-79
2022/03/14 00:15:08;;;;;;;31.02;20.35;;;4.90;56.00;;;;;;4985443;28;20203;-79
2022/03/14 00:17:37;;;;;;;42.63;21.42;;;4.90;56.10;;;;;;4984360;28;20218;-79
2022/03/14 00:20:09;;;;;;;46.03;26.45;;;4.90;56.20;;;;;;4985364;28;20605;-79
2022/03/14 00:22:37;;;;;;;63.67;32.10;;;4.90;56.30;;;;;;4984167;28;20207;-79
2022/03/14 00:25:06;;;;;;;70.20;39.35;;;4.90;56.40;;;;;;4984740;28;20222;-79
2022/03/14 00:27:35;;;;;;;62.08;33.30;;;4.90;56.30;;;;;;4983228;28;20225;-79
2022/03/14 00:30:04;;;;;;;29.48;19.00;;;4.90;56.40;;;;;;4984407;28;20234;-79
2022/03/14 00:32:34;;;;;;;29.25;17.10;;;4.90;56.50;;;;;;4999346;28;20827;-80
2022/03/14 00:35:02;;;;;;;27.50;17.92;;;5.00;56.60;;;;;;4984227;28;20217;-79
2022/03/14 00:37:32;;;;;;;31.95;19.30;;;5.00;56.70;;;;;;4985250;28;20209;-79
2022/03/14 00:40:00;;;;;;;39.22;24.77;;;5.00;56.60;;;;;;4999478;28;20230;-79
2022/03/14 00:42:28;;;;;;;48.08;27.80;;;5.00;56.80;;;;;;4983905;28;20199;-79
2022/03/14 00:45:03;;;;;;;51.25;28.95;;;4.90;56.60;;;;;;4999602;28;20215;-79
2022/03/14 00:47:31;;;;;;;41.33;24.75;;;4.90;56.70;;;;;;4982870;28;20230;-78
2022/03/14 00:49:59;;;;;;;30.30;18.95;;;4.90;56.80;;;;;;4984384;28;20237;-78
2022/03/14 00:52:27;;;;;;;31.85;18.30;;;4.90;56.80;;;;;;4984257;28;20673;-80
2022/03/14 00:54:56;;;;;;;26.77;17.40;;;4.80;56.90;;;;;;4983463;28;20198;-78
2022/03/14 00:57:24;;;;;;;41.33;20.55;;;4.80;56.90;;;;;;4988684;28;20582;-78
2022/03/14 00:59:53;;;;;;;36.45;22.05;;;4.70;56.90;;;;;;4988093;28;20230;-78
2022/03/14 01:02:21;;;;;;;33.10;23.10;;;4.70;57.00;;;;;;4988019;28;20226;-79
2022/03/14 01:04:50;;;;;;;40.03;24.05;;;4.70;57.00;;;;;;4982778;28;20246;-80
2022/03/14 01:07:18;;;;;;;38.58;25.60;;;4.70;57.10;;;;;;4985294;28;20206;-78
2022/03/14 01:09:46;;;;;;;27.42;16.92;;;4.70;57.10;;;;;;4985819;28;20201;-80
2022/03/14 01:12:15;;;;;;;25.88;16.05;;;4.70;57.30;;;;;;5002728;28;20564;-80
2022/03/14 01:14:44;;;;;;;30.65;18.85;;;4.60;57.40;;;;;;4999981;28;20194;-79
2022/03/14 01:17:12;;;;;;;30.13;17.88;;;4.60;57.40;;;;;;5001323;28;20253;-80
2022/03/14 01:19:40;;;;;;;25.40;17.15;;;4.70;57.60;;;;;;4987299;28;20821;-79
2022/03/14 01:22:10;;;;;;;26.08;16.55;;;4.80;57.70;;;;;;4987317;28;20206;-77
2022/03/14 01:24:42;;;;;;;22.77;15.52;;;4.80;57.60;;;;;;5002521;28;20222;-78
2022/03/14 01:27:11;;;;;;;20.73;14.80;;;4.80;57.60;;;;;;5000372;28;20202;-79
2022/03/14 01:29:40;;;;;;;24.35;15.13;;;4.80;57.60;;;;;;4987410;28;20210;-78
2022/03/14 01:32:10;;;;;;;25.25;17.27;;;4.80;57.60;;;;;;4987595;28;20230;-78
2022/03/14 01:34:38;;;;;;;26.08;17.10;;;4.80;57.80;;;;;;4988823;28;20199;-79
2022/03/14 01:37:06;;;;;;;26.63;17.30;;;4.80;57.80;;;;;;4987741;28;20210;-79
2022/03/14 01:39:34;;;;;;;28.33;18.02;;;4.80;57.80;;;;;;5003330;28;20625;-78
2022/03/14 01:42:02;;;;;;;30.33;17.80;;;4.80;57.70;;;;;;4987762;28;20687;-78
2022/03/14 01:44:30;;;;;;;27.15;16.33;;;4.80;57.80;;;;;;4986592;28;20223;-79
2022/03/14 01:47:00;;;;;;;28.00;18.30;;;4.80;57.90;;;;;;4986389;28;20727;-78
2022/03/14 01:49:28;;;;;;;27.92;19.65;;;4.90;58.10;;;;;;5003269;28;20680;-79
2022/03/14 01:51:58;;;;;;;25.90;17.75;;;4.90;57.90;;;;;;4987159;28;20198;-78
2022/03/14 01:54:26;;;;;;;26.55;16.55;;;4.90;58.10;;;;;;4987315;28;20207;-79
2022/03/14 01:56:55;;;;;;;27.30;17.75;;;5.00;58.20;;;;;;4987339;28;20202;-78
2022/03/14 01:59:26;;;;;;;27.27;18.20;;;5.00;58.20;;;;;;4987435;28;20222;-78
2022/03/14 02:01:55;;;;;;;27.52;17.80;;;5.00;58.20;;;;;;5001731;28;20231;-78
2022/03/14 02:04:25;;;;;;;26.77;18.50;;;5.00;58.20;;;;;;4985425;28;20838;-78
2022/03/14 02:06:54;;;;;;;30.20;18.00;;;5.00;58.20;;;;;;5001065;28;20222;-79
2022/03/14 02:09:22;;;;;;;24.63;16.85;;;5.00;58.30;;;;;;4987838;28;20629;-78
2022/03/14 02:11:53;;;;;;;27.70;17.60;;;5.00;58.30;;;;;;4984712;28;20225;-78
2022/03/14 02:14:22;;;;;;;26.60;16.25;;;5.00;58.30;;;;;;4981482;28;20199;-78
2022/03/14 02:16:50;;;;;;;30.08;17.17;;;5.00;58.30;;;;;;4985157;28;20226;-79
2022/03/14 02:19:20;;;;;;;27.48;17.10;;;4.90;58.40;;;;;;5001942;28;20201;-79
2022/03/14 02:21:49;;;;;;;21.40;15.02;;;5.00;58.40;;;;;;4986594;28;20241;-79
2022/03/14 02:24:17;;;;;;;24.45;16.35;;;5.00;58.40;;;;;;4984881;28;20201;-79
2022/03/14 02:26:45;;;;;;;24.23;15.88;;;5.00;58.50;;;;;;4987145;28;20719;-79
2022/03/14 02:29:13;;;;;;;24.13;16.15;;;4.90;58.50;;;;;;4986662;28;20210;-79
2022/03/14 02:31:45;;;;;;;25.13;17.23;;;4.90;58.50;;;;;;4985108;28;20242;-79
2022/03/14 02:34:13;;;;;;;26.75;17.10;;;4.90;58.50;;;;;;5000478;28;20222;-78
2022/03/14 02:36:41;;;;;;;23.85;16.63;;;4.90;58.60;;;;;;4997912;28;20242;-79
2022/03/14 02:39:10;;;;;;;26.77;16.42;;;4.90;58.70;;;;;;5000336;28;20204;-78
2022/03/14 02:41:41;;;;;;;25.60;17.10;;;4.90;58.80;;;;;;4987540;28;20227;-79
2022/03/14 02:44:09;;;;;;;30.25;17.75;;;4.90;58.80;;;;;;4985727;28;20214;-79
2022/03/14 02:46:37;;;;;;;28.55;17.38;;;4.90;58.80;;;;;;4984956;28;20242;-79
2022/03/14 02:49:06;;;;;;;27.60;17.98;;;4.90;58.80;;;;;;4986419;28;20207;-78
2022/03/14 02:51:35;;;;;;;25.58;17.25;;;4.80;58.90;;;;;;4986577;28;20229;-79
2022/03/14 02:54:04;;;;;;;24.65;16.60;;;4.80;58.90;;;;;;4993010;28;20347;-79
2022/03/14 02:56:34;;;;;;;25.60;16.65;;;4.80;59.00;;;;;;4986101;28;20290;-79
2022/03/14 02:59:02;;;;;;;25.80;15.63;;;4.80;59.00;;;;;;4985824;28;20222;-79
2022/03/14 03:01:30;;;;;;;25.98;16.90;;;4.80;59.10;;;;;;4986162;28;20284;-79
2022/03/14 03:03:59;;;;;;;28.58;17.10;;;4.70;59.10;;;;;;5000010;28;20226;-78
2022/03/14 03:06:26;;;;;;;25.65;16.27;;;4.70;59.10;;;;;;4984860;28;20837;-78
2022/03/14 03:08:55;;;;;;;27.50;16.95;;;4.70;59.20;;;;;;4985441;28;20206;-80
2022/03/14 03:11:23;;;;;;;26.90;17.73;;;4.70;59.20;;;;;;4997642;28;20219;-81
2022/03/14 03:13:54;;;;;;;27.42;17.63;;;4.70;59.20;;;;;;4985596;28;20202;-81
2022/03/14 03:16:23;;;;;;;23.77;15.57;;;4.60;59.20;;;;;;4984987;28;20257;-80
2022/03/14 03:18:51;;;;;;;25.38;16.40;;;4.60;59.30;;;;;;4983595;28;20195;-80
2022/03/14 03:21:19;;;;;;;24.48;16.83;;;4.60;59.20;;;;;;4984350;28;20234;-81
2022/03/14 03:23:47;;;;;;;29.05;17.95;;;4.60;59.30;;;;;;4997297;28;20218;-81
2022/03/14 03:26:16;;;;;;;24.75;15.88;;;4.60;59.40;;;;;;4984832;28;20743;-80
2022/03/14 03:28:44;;;;;;;28.25;18.33;;;4.50;59.60;;;;;;4984789;28;20202;-80
2022/03/14 03:31:16;;;;;;;26.52;16.92;;;4.50;59.50;;;;;;4997606;28;20242;-81
2022/03/14 03:33:45;;;;;;;23.73;16.50;;;4.50;59.60;;;;;;4997176;28;20210;-80
2022/03/14 03:36:14;;;;;;;27.88;17.08;;;4.50;59.70;;;;;;4985265;28;20224;-80
2022/03/14 03:38:42;;;;;;;24.83;16.15;;;4.50;59.80;;;;;;4986070;28;20469;-80
2022/03/14 03:41:11;;;;;;;25.45;17.63;;;4.50;59.80;;;;;;4987011;28;20606;-81
2022/03/14 03:43:39;;;;;;;23.98;15.70;;;4.60;59.80;;;;;;5000325;28;20202;-80
2022/03/14 03:46:07;;;;;;;24.17;17.23;;;4.60;59.80;;;;;;5000104;28;20600;-80
2022/03/14 03:48:37;;;;;;;28.60;17.80;;;4.70;59.90;;;;;;4985826;28;20207;-81
2022/03/14 03:51:05;;;;;;;28.90;17.00;;;4.70;59.90;;;;;;4985164;28;20226;-80
2022/03/14 03:53:33;;;;;;;30.20;18.35;;;4.70;59.90;;;;;;4982354;28;20222;-81
2022/03/14 03:56:01;;;;;;;24.10;16.60;;;4.80;59.90;;;;;;4985740;28;20203;-80
2022/03/14 03:58:29;;;;;;;27.55;18.33;;;4.70;59.90;;;;;;5000762;28;20213;-80
2022/03/14 04:00:57;;;;;;;30.52;19.38;;;4.80;60.00;;;;;;5000138;28;20398;-80
2022/03/14 04:03:25;;;;;;;30.27;19.92;;;4.80;60.00;;;;;;4999626;28;20218;-80
2022/03/14 04:05:54;;;;;;;31.70;19.77;;;4.80;60.20;;;;;;4984066;28;20221;-80
2022/03/14 04:08:22;;;;;;;29.08;19.38;;;4.80;60.20;;;;;;4986285;28;20214;-79
2022/03/14 04:10:54;;;;;;;28.85;18.35;;;4.80;60.20;;;;;;5001263;28;20223;-83
2022/03/14 04:13:23;;;;;;;25.75;17.73;;;4.80;60.10;;;;;;5000822;28;20191;-80
2022/03/14 04:15:54;;;;;;;30.75;20.58;;;4.80;60.10;;;;;;4985817;28;20236;-81
2022/03/14 04:18:24;;;;;;;36.80;20.60;;;4.80;60.10;;;;;;4981919;28;20199;-80
2022/03/14 04:20:55;;;;;;;33.47;17.90;;;4.80;60.10;;;;;;5000862;28;20241;-79
2022/03/14 04:23:24;;;;;;;28.50;17.17;;;4.80;60.30;;;;;;4985168;28;20194;-80
2022/03/14 04:25:55;;;;;;;27.33;16.80;;;4.80;60.30;;;;;;4986288;28;20242;-83
2022/03/14 04:28:24;;;;;;;23.77;16.95;;;4.80;60.50;;;;;;4986259;28;20248;-81
2022/03/14 04:30:52;;;;;;;24.10;17.58;;;4.90;60.60;;;;;;4985768;28;20242;-82
2022/03/14 04:33:20;;;;;;;28.75;18.27;;;4.90;60.50;;;;;;4989176;28;20199;-82
2022/03/14 04:35:47;;;;;;;21.13;15.38;;;4.90;60.70;;;;;;5005014;28;20207;-82
2022/03/14 04:38:18;;;;;;;27.25;17.00;;;4.90;60.70;;;;;;4991613;28;20644;-81
2022/03/14 04:40:46;;;;;;;23.48;16.00;;;4.90;60.80;;;;;;4988378;28;20237;-83
2022/03/14 04:43:14;;;;;;;22.73;15.02;;;4.90;61.00;;;;;;4989441;28;20237;-81
2022/03/14 04:46:03;;;;;;;27.52;16.00;;;5.00;61.10;;;;;;4990216;28;20716;-82
2022/03/14 04:48:31;;;;;;;23.42;15.13;;;5.00;61.40;;;;;;4975328;28;20285;-81
2022/03/14 04:50:59;;;;;;;24.58;15.80;;;5.00;61.30;;;;;;4988578;28;20785;-82
2022/03/14 04:53:29;;;;;;;35.80;16.85;;;5.00;61.40;;;;;;5000510;28;20199;-81
2022/03/14 04:55:57;;;;;;;25.98;16.48;;;5.00;61.50;;;;;;4990263;28;20207;-82
2022/03/14 04:58:25;;;;;;;28.05;16.10;;;5.10;62.00;;;;;;4990403;28;20202;-82
2022/03/14 05:00:53;;;;;;;25.20;16.90;;;5.10;61.80;;;;;;4989546;28;20227;-78
2022/03/14 05:03:25;;;;;;;23.27;16.88;;;5.10;62.00;;;;;;4988060;28;20206;-82
2022/03/14 05:05:53;;;;;;;26.80;17.83;;;5.20;62.20;;;;;;5003856;28;20213;-81
2022/03/14 05:08:21;;;;;;;27.35;19.65;;;5.30;62.30;;;;;;4989324;28;20717;-82
2022/03/14 05:10:51;;;;;;;28.08;18.23;;;5.30;62.30;;;;;;4989558;28;20238;-81
2022/03/14 05:13:20;;;;;;;30.30;19.83;;;5.30;62.60;;;;;;4990606;28;20211;-81
2022/03/14 05:15:48;;;;;;;30.52;19.77;;;5.30;62.70;;;;;;4989407;28;20243;-81
2022/03/14 05:18:16;;;;;;;26.15;18.48;;;5.30;62.80;;;;;;4996073;28;20206;-81
2022/03/14 05:20:44;;;;;;;28.13;19.10;;;5.30;62.90;;;;;;5004948;28;20223;-81
2022/03/14 05:23:12;;;;;;;29.05;18.85;;;5.30;63.10;;;;;;4988789;28;20218;-81
2022/03/14 05:25:40;;;;;;;28.65;18.55;;;5.30;63.30;;;;;;4988800;28;20199;-80
2022/03/14 05:28:09;;;;;;;30.80;20.23;;;5.30;63.60;;;;;;4990507;28;20215;-81
2022/03/14 05:30:37;;;;;;;26.55;18.30;;;5.40;63.70;;;;;;4987462;28;20393;-81
2022/03/14 05:33:05;;;;;;;34.65;22.17;;;5.40;63.90;;;;;;4987727;28;20226;-81
2022/03/14 05:35:34;;;;;;;27.15;19.75;;;5.40;64.10;;;;;;4987309;28;20195;-81
2022/03/14 05:38:02;;;;;;;30.15;19.45;;;5.50;64.20;;;;;;4988250;28;20202;-80
2022/03/14 05:40:30;;;;;;;26.90;18.73;;;5.50;64.40;;;;;;4988267;28;20254;-81
2022/03/14 05:42:58;;;;;;;28.95;19.35;;;5.50;64.60;;;;;;4988093;28;20610;-80
2022/03/14 05:45:28;;;;;;;31.85;21.58;;;5.60;64.70;;;;;;4992610;28;20234;-80
2022/03/14 05:47:56;;;;;;;34.28;21.75;;;5.60;65.00;;;;;;4987663;28;20219;-81
2022/03/14 05:50:24;;;;;;;31.42;19.25;;;5.70;65.20;;;;;;4988145;28;20351;-80
2022/03/14 05:52:52;;;;;;;27.75;18.70;;;5.70;65.50;;;;;;5002734;28;20210;-80
2022/03/14 05:55:20;;;;;;;31.65;19.52;;;5.80;65.60;;;;;;4989389;28;20203;-81
2022/03/14 05:57:49;;;;;;;25.65;19.35;;;5.80;65.80;;;;;;4989189;28;20199;-81
2022/03/14 06:00:19;;;;;;;31.60;20.05;;;5.80;65.90;;;;;;4988091;28;20226;-81
2022/03/14 06:02:49;;;;;;;31.75;19.85;;;5.90;66.10;;;;;;4986553;28;20641;-81
2022/03/14 06:05:19;;;;;;;33.17;20.88;;;5.90;66.20;;;;;;4987533;28;20238;-80
2022/03/14 06:07:47;;;;;;;29.67;19.85;;;6.00;66.50;;;;;;4988330;28;20233;-79
2022/03/14 06:10:15;;;;;;;25.83;17.73;;;6.00;66.70;;;;;;4987864;28;20227;-81
2022/03/14 06:12:45;;;;;;;28.23;18.75;;;6.10;66.90;;;;;;4988923;28;20207;-81
2022/03/14 06:15:14;;;;;;;28.08;18.30;;;6.10;67.10;;;;;;4987229;28;20258;-81
2022/03/14 06:17:42;;;;;;;21.95;15.45;;;6.20;67.30;;;;;;4988627;28;20719;-80
2022/03/14 06:20:14;;;;;;;23.77;15.55;;;6.20;68.00;;;;;;5003223;28;20637;-82
2022/03/14 06:22:43;;;;;;;24.48;15.75;;;6.30;68.00;;;;;;4988248;28;20203;-81
2022/03/14 06:25:12;;;;;;;21.40;14.57;;;6.40;68.20;;;;;;4982097;28;20931;-81
2022/03/14 06:27:41;;;;;;;22.98;15.32;;;6.40;68.40;;;;;;5003320;28;20238;-80
2022/03/14 06:30:11;;;;;;;22.13;13.75;;;6.50;68.60;;;;;;4987152;28;20222;-81
2022/03/14 06:32:40;;;;;;;21.67;13.95;;;6.50;69.30;;;;;;4987379;28;20211;-81
2022/03/14 06:35:12;;;;;;;27.92;17.60;;;6.60;69.70;;;;;;5002292;28;20266;-81
2022/03/14 06:37:40;;;;;;;22.30;14.63;;;6.70;70.10;;;;;;4987825;28;20195;-80
2022/03/14 06:40:08;;;;;;;23.42;15.05;;;6.70;70.00;;;;;;4984781;28;20210;-81
2022/03/14 06:42:41;;;;;;;21.40;13.88;;;6.80;70.20;;;;;;4985291;28;20743;-80
2022/03/14 06:45:11;;;;;;;24.48;15.40;;;6.90;70.30;;;;;;5001687;28;20206;-80
2022/03/14 06:47:39;;;;;;;16.88;12.10;;;6.90;70.50;;;;;;5001838;28;20696;-80
2022/03/14 06:50:08;;;;;;;19.65;13.10;;;7.00;70.70;;;;;;4987121;28;20226;-81
2022/03/14 06:52:37;;;;;;;21.73;14.07;;;7.00;70.80;;;;;;4985926;28;20687;-81
2022/03/14 06:55:06;;;;;;;17.40;12.53;;;7.10;71.50;;;;;;4989413;28;20225;-81
2022/03/14 06:57:34;;;;;;;20.48;13.23;;;7.10;71.10;;;;;;5002311;28;20825;-80
2022/03/14 07:00:02;;;;;;;18.92;11.50;;;7.20;71.10;;;;;;4987223;28;20237;-80
2022/03/14 07:02:30;;;;;;;20.67;12.70;;;7.20;71.20;;;;;;4985143;28;20296;-80
2022/03/14 07:04:59;;;;;;;15.18;10.82;;;7.20;71.80;;;;;;4985480;28;20199;-81
2022/03/14 07:07:27;;;;;;;18.67;11.60;;;7.20;71.60;;;;;;4987278;28;20821;-79
2022/03/14 07:09:56;;;;;;;14.45;9.75;;;7.30;71.90;;;;;;4985599;28;20219;-81
2022/03/14 07:12:24;;;;;;;14.38;9.10;;;7.30;71.90;;;;;;4987188;28;20269;-81
2022/03/14 07:14:52;;;;;;;15.63;9.87;;;7.30;72.30;;;;;;5001994;28;20203;-81
2022/03/14 07:17:20;;;;;;;15.85;10.02;;;7.40;72.50;;;;;;4986575;28;21300;-81
2022/03/14 07:19:48;;;;;;;12.95;9.30;;;7.40;72.50;;;;;;4986963;28;20198;-81
2022/03/14 07:22:19;;;;;;;11.75;7.93;;;7.40;73.00;;;;;;4986777;28;20210;-81
2022/03/14 07:24:55;;;;;;;15.40;9.55;;;7.40;73.10;;;;;;4998003;28;20210;-81
2022/03/14 07:27:23;;;;;;;11.65;7.35;;;7.40;73.50;;;;;;5001653;28;20198;-81
2022/03/14 07:29:51;;;;;;;11.25;7.60;;;7.40;74.60;;;;;;4987359;28;20210;-82
2022/03/14 07:32:20;;;;;;;11.10;7.78;;;7.50;74.00;;;;;;4982816;28;20226;-81
2022/03/14 07:34:48;;;;;;;11.00;6.65;;;7.50;75.20;;;;;;4997983;28;20210;-81
2022/03/14 07:37:16;;;;;;;10.85;6.07;;;7.60;74.70;;;;;;5000289;28;20253;-81
2022/03/14 07:39:44;;;;;;;9.05;6.05;;;7.60;75.10;;;;;;4985188;28;20217;-80
2022/03/14 07:42:14;;;;;;;7.97;6.00;;;7.70;75.60;;;;;;4985056;28;20207;-82
2022/03/14 07:44:43;;;;;;;10.30;7.53;;;7.70;75.60;;;;;;4983491;28;20202;-79
2022/03/14 07:47:13;;;;;;;10.30;6.50;;;7.70;75.90;;;;;;4999586;28;20275;-80
2022/03/14 07:49:41;;;;;;;12.73;7.22;;;7.80;76.70;;;;;;4986675;28;20482;-82
2022/03/14 07:52:09;;;;;;;9.93;6.10;;;7.80;77.70;;;;;;5001368;28;20199;-81
2022/03/14 07:54:38;;;;;;;10.90;6.80;;;7.80;75.70;;;;;;4985573;28;20461;-82
2022/03/14 07:57:06;;;;;;;12.38;6.75;;;7.90;76.00;;;;;;5001566;28;20466;-81
2022/03/14 07:59:35;;;;;;;13.02;8.48;;;7.90;75.70;;;;;;5001731;28;20210;-82
2022/03/14 08:02:03;;;;;;;10.50;6.63;;;8.00;77.50;;;;;;4984942;28;20281;-80
2022/03/14 08:04:32;;;;;;;13.60;6.43;;;8.00;76.40;;;;;;4998059;28;20211;-81
2022/03/14 08:07:00;;;;;;;14.13;7.63;;;8.10;76.20;;;;;;5000168;28;20501;-81
2022/03/14 08:09:29;;;;;;;10.53;7.80;;;8.10;76.10;;;;;;4986733;28;20469;-82
2022/03/14 08:11:58;;;;;;;13.67;8.77;;;8.10;76.40;;;;;;4987696;28;20500;-80
2022/03/14 08:14:26;;;;;;;11.53;7.57;;;8.10;76.40;;;;;;5000682;28;20461;-82
2022/03/14 08:16:55;;;;;;;12.93;8.07;;;8.10;77.20;;;;;;4983553;28;20556;-81
2022/03/14 08:19:23;;;;;;;12.77;8.80;;;8.20;76.90;;;;;;4983577;28;20461;-81
2022/03/14 08:21:54;;;;;;;18.60;8.60;;;8.20;76.60;;;;;;5000907;28;20485;-81
2022/03/14 08:24:22;;;;;;;13.83;9.37;;;8.20;76.80;;;;;;5001139;28;21013;-81
2022/03/14 08:26:49;;;;;;;13.63;8.30;;;8.20;76.60;;;;;;5000964;28;20453;-79
2022/03/14 08:29:18;;;;;;;15.53;8.77;;;8.20;77.50;;;;;;5001460;28;20488;-78
2022/03/14 08:31:47;;;;;;;14.03;7.90;;;8.20;77.50;;;;;;4985700;28;20536;-79
2022/03/14 08:34:17;;;;;;;12.53;8.47;;;8.20;76.90;;;;;;4999239;28;20466;-79
2022/03/14 08:36:45;;;;;;;14.13;8.30;;;8.30;77.20;;;;;;4986352;28;20464;-79
2022/03/14 08:39:13;;;;;;;12.20;8.50;;;8.20;77.90;;;;;;4985436;28;20473;-79
2022/03/14 08:41:41;;;;;;;12.53;7.53;;;8.30;77.10;;;;;;4986520;28;20477;-79
2022/03/14 08:44:10;;;;;;;12.73;8.10;;;8.30;77.50;;;;;;5000024;28;20466;-77
2022/03/14 08:46:39;;;;;;;12.40;8.60;;;8.30;77.30;;;;;;4986397;28;21022;-78
2022/03/14 08:49:07;;;;;;;14.93;8.20;;;8.30;77.70;;;;;;4985542;28;20478;-77
2022/03/14 08:51:37;;;;;;;15.73;7.73;;;8.40;78.00;;;;;;4984063;28;20955;-77
2022/03/14 08:54:05;;;;;;;12.87;8.10;;;8.40;77.60;;;;;;4985423;28;20464;-77
2022/03/14 08:56:34;;;;;;;16.00;8.60;;;8.50;78.00;;;;;;5001518;28;20458;-78
2022/03/14 08:59:04;;;;;;;15.00;7.00;;;8.50;78.30;;;;;;4986505;28;20450;-78
2022/03/14 09:01:33;;;;;;;13.73;7.87;;;8.50;78.50;;;;;;5000858;28;20485;-78
2022/03/14 09:04:01;;;;;;;13.33;8.20;;;8.60;78.20;;;;;;4999174;28;20568;-77
2022/03/14 09:06:29;;;;;;;16.70;8.50;;;8.60;78.20;;;;;;4986320;28;20536;-78
2022/03/14 09:08:59;;;;;;;12.13;7.17;;;8.60;78.20;;;;;;4987171;28;20548;-77
2022/03/14 09:11:47;;;;;;;11.50;7.30;;;8.70;78.20;;;;;;5001069;28;20491;-78
2022/03/14 09:14:15;;;;;;;12.13;7.40;;;8.70;78.50;;;;;;4971532;28;20469;-78
2022/03/14 09:16:44;;;;;;;14.97;7.03;;;8.80;78.20;;;;;;4998423;28;20470;-77
2022/03/14 09:19:12;;;;;;;14.27;6.90;;;8.90;78.40;;;;;;5000219;28;20456;-78
2022/03/14 09:21:40;;;;;;;15.63;8.10;;;8.90;78.50;;;;;;4989534;28;20488;-78
2022/03/14 09:24:11;;;;;;;15.60;7.63;;;9.00;78.70;;;;;;5003460;28;20488;-77
2022/03/14 09:26:39;;;;;;;14.00;8.83;;;9.00;78.60;;;;;;5004527;28;20449;-77
2022/03/14 09:29:08;;;;;;;14.30;7.70;;;9.00;78.90;;;;;;5004109;28;20470;-78
2022/03/14 09:31:36;;;;;;;13.93;8.70;;;9.00;79.30;;;;;;4991657;28;20477;-78
2022/03/14 09:34:04;;;;;;;16.63;8.37;;;9.10;79.20;;;;;;4988320;28;20458;-78
2022/03/14 09:36:32;;;;;;;13.70;8.80;;;9.10;79.20;;;;;;5003942;28;20454;-77
2022/03/14 09:39:00;;;;;;;17.57;8.90;;;9.10;79.10;;;;;;4989148;28;20461;-78
2022/03/14 09:41:31;;;;;;;17.17;8.40;;;9.10;79.40;;;;;;4987156;28;21161;-78
2022/03/14 09:44:00;;;;;;;89.53;49.83;;;9.10;79.10;;;;;;4991933;28;20532;-77
2022/03/14 09:46:29;;;;;;;57.37;30.00;;;9.20;79.00;;;;;;5008751;28;20838;-77
2022/03/14 09:48:59;;;;;;;24.70;15.13;;;9.10;79.40;;;;;;5000895;28;20630;-77
2022/03/14 09:51:28;;;;;;;19.83;11.20;;;9.10;79.30;;;;;;4988302;28;20556;-77
2022/03/14 09:53:57;;;;;;;13.57;7.90;;;9.10;79.60;;;;;;4990264;28;20453;-76
2022/03/14 09:56:26;;;;;;;15.83;7.70;;;9.00;79.40;;;;;;4999169;28;20546;-77
2022/03/14 09:58:56;;;;;;;11.73;7.07;;;9.00;79.30;;;;;;5004591;28;20473;-77
2022/03/14 10:01:24;;;;;;;20.53;8.90;;;9.00;79.10;;;;;;5004231;28;20477;-78
2022/03/14 10:03:55;;;;;;;13.97;7.17;;;9.00;79.20;;;;;;4992742;28;20468;-78
2022/03/14 10:06:23;;;;;;;17.07;7.73;;;9.00;79.30;;;;;;5005013;28;20465;-78
2022/03/14 10:08:51;;;;;;;17.40;6.87;;;9.00;79.60;;;;;;4999433;28;20458;-78
2022/03/14 10:11:19;;;;;;;13.03;6.07;;;9.00;79.30;;;;;;4989905;28;20480;-77
2022/03/14 10:13:47;;;;;;;12.80;5.93;;;9.00;79.50;;;;;;4993062;28;20968;-77
2022/03/14 10:16:17;;;;;;;11.03;5.70;;;9.00;79.40;;;;;;4991425;28;20810;-78
2022/03/14 10:18:56;;;;;;;12.87;4.90;;;9.10;79.50;;;;;;5003536;28;20470;-78
2022/03/14 10:21:32;;;;;;;13.27;5.30;;;9.20;79.60;;;;;;5004315;28;20473;-77
2022/03/14 10:24:01;;;;;;;13.57;6.13;;;9.20;79.80;;;;;;4985307;28;20465;-77
2022/03/14 10:26:31;;;;;;;10.97;4.93;;;9.30;79.80;;;;;;4987281;28;20470;-77
2022/03/14 10:29:00;;;;;;;9.93;5.10;;;9.30;80.20;;;;;;5000321;28;21129;-77
2022/03/14 10:31:37;;;;;;;11.07;5.23;;;9.30;80.50;;;;;;4986797;28;20477;-77
2022/03/14 10:34:08;;;;;;;17.67;5.33;;;9.40;80.20;;;;;;4999094;28;20477;-77
2022/03/14 10:36:43;;;;;;;15.30;5.23;;;9.50;80.00;;;;;;5003652;28;20454;-78
2022/03/14 10:39:16;;;;;;;16.43;4.93;;;9.50;80.10;;;;;;4986801;28;20462;-77
2022/03/14 10:41:46;;;;;;;12.30;4.50;;;9.60;80.10;;;;;;5001623;28;20497;-77
2022/03/14 10:44:35;;;;;;;8.87;5.60;;;9.70;80.10;;;;;;4997377;28;20498;-79
2022/03/14 10:47:07;;;;;;;10.33;5.20;;;9.70;80.40;;;;;;4999236;28;20469;-78
2022/03/14 10:49:37;;;;;;;14.17;6.27;;;9.70;80.20;;;;;;4987513;28;20580;-79
2022/03/14 10:52:07;;;;;;;8.97;5.50;;;9.80;80.10;;;;;;4985909;28;20457;-79
2022/03/14 10:54:36;;;;;;;21.33;5.70;;;9.80;80.20;;;;;;5001625;28;21017;-79
2022/03/14 10:57:06;;;;;;;11.27;5.70;;;9.80;80.30;;;;;;5002153;28;20458;-80
2022/03/14 10:59:39;;;;;;;8.97;4.20;;;9.90;80.20;;;;;;4987704;28;21023;-79
2022/03/14 11:02:10;;;;;;;10.77;5.00;;;9.90;80.30;;;;;;5000681;28;20473;-79
2022/03/14 11:04:46;;;;;;;11.13;5.00;;;9.90;80.10;;;;;;4984449;28;20480;-79
2022/03/14 11:07:15;;;;;;;9.97;4.80;;;9.90;80.60;;;;;;4984198;28;20524;-79
2022/03/14 11:09:45;;;;;;;9.93;4.47;;;10.00;80.10;;;;;;5002098;28;20481;-79
2022/03/14 11:12:16;;;;;;;8.63;4.17;;;10.00;79.90;;;;;;4985889;28;20464;-79
2022/03/14 11:14:52;;;;;;;9.10;4.53;;;10.00;79.90;;;;;;4999783;28;20462;-79
2022/03/14 11:17:23;;;;;;;10.57;4.47;;;10.00;80.10;;;;;;4985685;28;20477;-78
2022/03/14 11:19:52;;;;;;;12.30;4.50;;;10.00;79.80;;;;;;5001922;28;20458;-79
2022/03/14 11:22:21;;;;;;;13.00;5.37;;;10.10;80.20;;;;;;5001774;28;20496;-78
2022/03/14 11:24:50;;;;;;;10.80;5.60;;;10.10;79.80;;;;;;4983265;28;20453;-79
2022/03/14 11:27:23;;;;;;;9.90;5.23;;;10.10;79.40;;;;;;4986636;28;20465;-78
2022/03/14 11:29:53;;;;;;;8.73;4.10;;;10.10;79.30;;;;;;5002262;28;20477;-79
2022/03/14 11:32:22;;;;;;;11.77;5.63;;;10.10;79.10;;;;;;4986112;28;20476;-79
2022/03/14 11:35:03;;;;;;;11.37;5.40;;;10.10;79.10;;;;;;5001426;28;20476;-79
2022/03/14 11:37:32;;;;;;;10.93;4.83;;;10.10;79.00;;;;;;4985010;28;20938;-78
2022/03/14 11:40:01;;;;;;;15.83;5.27;;;10.10;78.90;;;;;;4988886;28;20544;-78
2022/03/14 11:42:31;;;;;;;12.80;5.00;;;10.10;79.00;;;;;;4984519;28;20546;-78
2022/03/14 11:45:06;;;;;;;10.00;4.70;;;10.20;78.90;;;;;;4986555;28;20461;-78
2022/03/14 11:47:36;;;;;;;15.30;5.43;;;10.20;78.80;;;;;;4985022;28;20472;-78
2022/03/14 11:50:05;;;;;;;10.70;4.20;;;10.20;78.60;;;;;;4985807;28;20971;-78
2022/03/14 11:52:38;;;;;;;9.73;4.90;;;10.20;78.60;;;;;;5001656;28;20458;-78
2022/03/14 11:55:17;;;;;;;8.40;4.47;;;10.30;78.40;;;;;;4984900;28;20453;-77
2022/03/14 11:57:47;;;;;;;15.83;3.60;;;10.30;78.40;;;;;;4984833;28;20989;-78
2022/03/14 12:00:36;;;;;;;9.03;3.63;;;10.30;78.30;;;;;;4993659;28;20548;-79
2022/03/14 12:03:07;;;;;;;7.90;3.60;;;10.40;78.10;;;;;;4993843;28;20473;-79
2022/03/14 12:05:49;;;;;;;14.47;4.47;;;10.40;78.00;;;;;;4983832;28;20493;-77
2022/03/14 12:09:00;;;;;;;8.17;3.90;;;10.40;77.90;;;;;;4998475;28;20550;-78
2022/03/14 12:11:35;;;;;;;10.23;3.20;;;10.40;77.80;;;;;;4983334;28;20496;-78
2022/03/14 12:14:03;;;;;;;6.30;3.50;;;10.50;77.50;;;;;;4998433;28;20492;-79
2022/03/14 12:16:39;;;;;;;9.17;3.57;;;10.50;77.60;;;;;;4983882;28;20477;-79
2022/03/14 12:19:32;;;;;;;7.50;3.20;;;10.50;77.40;;;;;;5000271;28;20546;-80
2022/03/14 12:22:02;;;;;;;10.57;3.17;;;10.50;77.40;;;;;;5001172;28;20494;-79
2022/03/14 12:24:49;;;;;;;8.10;3.40;;;10.50;77.20;;;;;;4999924;28;20486;-79
2022/03/14 12:27:22;;;;;;;8.90;3.70;;;10.50;77.10;;;;;;4986563;28;20541;-79
2022/03/14 12:29:51;;;;;;;6.00;2.97;;;10.50;77.10;;;;;;5001271;28;20889;-79
2022/03/14 12:32:27;;;;;;;6.83;2.90;;;10.50;76.90;;;;;;4988621;28;20476;-79
2022/03/14 12:35:07;;;;;;;7.80;3.10;;;10.50;76.80;;;;;;4988091;28;20469;-79
2022/03/14 12:37:42;;;;;;;8.30;3.13;;;10.50;76.50;;;;;;4983146;28;20676;-79
2022/03/14 12:40:32;;;;;;;6.50;2.77;;;10.50;76.50;;;;;;4987563;28;20485;-79
2022/03/14 12:43:12;;;;;;;6.53;3.30;;;10.60;76.50;;;;;;4998332;28;20844;-79
2022/03/14 12:45:42;;;;;;;6.97;3.00;;;10.60;76.50;;;;;;5000025;28;20497;-78
2022/03/14 12:48:19;;;;;;;9.53;3.70;;;10.70;76.40;;;;;;4985169;28;20442;-78
2022/03/14 12:50:55;;;;;;;8.50;2.97;;;10.70;76.30;;;;;;4999586;28;20535;-78
2022/03/14 12:53:54;;;;;;;6.27;2.63;;;10.80;76.20;;;;;;5000236;28;20465;-79